createdAt,value
2018-09-13T00:00:36.604Z,23.10
2018-09-13T00:03:05.135Z,23.67
2018-09-13T00:05:33.699Z,24.23
2018-09-13T00:08:02.206Z,22.07
2018-09-13T00:10:30.798Z,18.77
2018-09-13T00:12:59.299Z,23.27
2018-09-13T00:15:27.829Z,21.40
2018-09-13T00:17:56.387Z,22.93
2018-09-13T00:20:24.888Z,20.13
2018-09-13T00:22:53.439Z,28.50
2018-09-13T00:25:21.986Z,20.60
2018-09-13T00:27:50.558Z,16.63
2018-09-13T00:30:19.063Z,21.30
2018-09-13T00:32:47.610Z,17.70
2018-09-13T00:35:16.124Z,17.20
2018-09-13T00:37:44.661Z,22.10
2018-09-13T00:40:13.235Z,20.27
2018-09-13T00:42:41.763Z,18.17
2018-09-13T00:45:10.282Z,17.20
2018-09-13T00:47:43.257Z,19.00
2018-09-13T00:50:12.506Z,19.80
2018-09-13T00:52:41.118Z,18.50
2018-09-13T00:55:09.668Z,24.50
2018-09-13T00:57:38.434Z,19.00
2018-09-13T01:00:07.352Z,19.53
2018-09-13T01:02:36.075Z,16.70
2018-09-13T01:05:04.674Z,17.10
2018-09-13T01:07:33.505Z,17.07
2018-09-13T01:10:02.109Z,17.90
2018-09-13T01:12:30.646Z,18.07
2018-09-13T01:14:59.163Z,19.53
2018-09-13T01:17:27.672Z,20.93
2018-09-13T01:19:56.206Z,17.20
2018-09-13T01:22:24.706Z,19.87
2018-09-13T01:24:55.971Z,17.13
2018-09-13T01:27:25.869Z,21.70
2018-09-13T01:32:44.630Z,20.87
2018-09-13T01:35:13.149Z,22.00
2018-09-13T01:37:41.882Z,18.70
2018-09-13T01:40:10.414Z,22.37
2018-09-13T01:42:38.927Z,18.47
2018-09-13T01:45:07.498Z,19.13
2018-09-13T01:47:36.001Z,18.20
2018-09-13T01:50:04.641Z,23.10
2018-09-13T01:52:33.182Z,23.10
2018-09-13T01:55:01.750Z,16.40
2018-09-13T01:57:30.275Z,18.27
2018-09-13T01:59:58.877Z,16.97
2018-09-13T02:02:27.417Z,18.10
2018-09-13T02:04:55.956Z,22.07
2018-09-13T02:07:24.469Z,21.20
2018-09-13T02:09:53.080Z,16.37
2018-09-13T02:12:21.609Z,19.80
2018-09-13T02:14:50.132Z,18.57
2018-09-13T02:17:18.670Z,23.40
2018-09-13T02:19:47.196Z,21.47
2018-09-13T02:22:15.734Z,19.27
2018-09-13T02:24:44.262Z,24.13
2018-09-13T02:27:12.797Z,20.10
2018-09-13T02:29:41.302Z,23.70
2018-09-13T02:32:09.859Z,21.20
2018-09-13T02:34:38.399Z,17.83
2018-09-13T02:37:06.945Z,23.70
2018-09-13T02:39:35.500Z,23.07
2018-09-13T02:42:04.123Z,22.47
2018-09-13T02:44:32.606Z,25.73
2018-09-13T02:47:01.157Z,24.80
2018-09-13T02:49:29.652Z,22.37
2018-09-13T02:51:58.207Z,22.23
2018-09-13T02:54:26.717Z,25.07
2018-09-13T02:56:55.203Z,23.40
2018-09-13T02:59:23.735Z,29.60
2018-09-13T03:01:52.259Z,28.00
2018-09-13T03:04:20.803Z,27.17
2018-09-13T03:06:49.366Z,28.30
2018-09-13T03:09:17.922Z,25.17
2018-09-13T03:11:46.421Z,28.90
2018-09-13T03:14:14.974Z,28.50
2018-09-13T03:16:43.501Z,24.47
2018-09-13T03:19:12.191Z,21.73
2018-09-13T03:21:40.702Z,23.63
2018-09-13T03:24:09.285Z,24.70
2018-09-13T03:26:37.808Z,28.40
2018-09-13T03:29:06.423Z,23.80
2018-09-13T03:31:34.933Z,32.10
2018-09-13T03:34:03.595Z,26.30
2018-09-13T03:36:32.118Z,34.03
2018-09-13T03:39:00.629Z,29.97
2018-09-13T03:41:29.106Z,28.63
2018-09-13T03:43:57.622Z,37.20
2018-09-13T03:46:26.123Z,34.10
2018-09-13T03:48:54.649Z,33.37
2018-09-13T03:51:23.182Z,28.00
2018-09-13T03:53:51.699Z,32.37
2018-09-13T03:56:20.178Z,27.53
2018-09-13T03:58:48.726Z,30.00
2018-09-13T04:01:17.275Z,29.20
2018-09-13T04:03:45.830Z,31.90
2018-09-13T04:06:14.365Z,33.37
2018-09-13T04:08:43.243Z,27.73
2018-09-13T04:11:11.774Z,38.00
2018-09-13T04:13:40.382Z,36.67
2018-09-13T04:16:08.935Z,34.80
2018-09-13T04:18:37.583Z,30.80
2018-09-13T04:21:06.173Z,25.30
2018-09-13T04:23:34.691Z,29.13
2018-09-13T04:26:03.203Z,35.03
2018-09-13T04:28:31.729Z,32.00
2018-09-13T04:31:00.272Z,29.17
2018-09-13T04:33:28.832Z,31.87
2018-09-13T04:35:57.554Z,30.30
2018-09-13T04:38:26.133Z,27.83
2018-09-13T04:40:54.649Z,26.53
2018-09-13T04:43:23.266Z,31.33
2018-09-13T04:45:51.834Z,33.97
2018-09-13T04:48:20.389Z,38.17
2018-09-13T04:50:48.903Z,39.97
2018-09-13T04:53:17.560Z,38.27
2018-09-13T04:55:46.160Z,44.40
2018-09-13T04:58:14.767Z,38.67
2018-09-13T05:00:43.342Z,36.60
2018-09-13T05:03:11.979Z,39.00
2018-09-13T05:05:40.550Z,42.77
2018-09-13T05:08:09.095Z,44.13
2018-09-13T05:10:37.651Z,48.77
2018-09-13T05:13:06.413Z,40.60
2018-09-13T05:15:34.951Z,46.13
2018-09-13T05:18:03.478Z,46.13
2018-09-13T05:20:32.061Z,38.77
2018-09-13T05:23:00.630Z,43.07
2018-09-13T05:25:29.278Z,42.97
2018-09-13T05:27:57.822Z,45.57
2018-09-13T05:30:26.382Z,41.20
2018-09-13T05:32:54.922Z,46.77
2018-09-13T05:35:23.483Z,40.33
2018-09-13T05:37:51.994Z,43.00
2018-09-13T05:40:20.633Z,44.63
2018-09-13T05:42:49.221Z,45.13
2018-09-13T05:45:17.965Z,42.67
2018-09-13T05:47:46.638Z,40.50
2018-09-13T05:50:15.224Z,41.30
2018-09-13T05:52:43.747Z,36.90
2018-09-13T05:55:12.315Z,38.90
2018-09-13T05:57:40.835Z,40.30
2018-09-13T06:00:09.393Z,38.73
2018-09-13T06:02:38.069Z,48.83
2018-09-13T06:05:06.650Z,36.43
2018-09-13T06:07:35.162Z,32.33
2018-09-13T06:10:04.011Z,35.37
2018-09-13T06:12:32.522Z,39.73
2018-09-13T06:15:01.056Z,37.97
2018-09-13T06:17:29.575Z,37.20
2018-09-13T06:19:58.225Z,37.90
2018-09-13T06:22:26.745Z,39.97
2018-09-13T06:24:55.253Z,34.90
2018-09-13T06:27:23.878Z,37.23
2018-09-13T06:29:52.407Z,31.97
2018-09-13T06:32:20.945Z,29.07
2018-09-13T06:34:49.483Z,24.57
2018-09-13T06:37:18.011Z,21.60
2018-09-13T06:39:46.574Z,23.20
2018-09-13T06:42:15.198Z,20.83
2018-09-13T06:44:43.712Z,18.97
2018-09-13T06:47:12.294Z,18.97
2018-09-13T06:49:40.819Z,17.93
2018-09-13T06:52:09.405Z,15.40
2018-09-13T06:54:38.067Z,14.80
2018-09-13T06:57:06.620Z,15.00
2018-09-13T06:59:35.166Z,15.67
2018-09-13T07:02:03.760Z,15.43
2018-09-13T07:04:32.276Z,15.70
2018-09-13T07:07:00.870Z,18.50
2018-09-13T07:09:29.511Z,14.43
2018-09-13T07:11:58.087Z,15.57
2018-09-13T07:14:26.634Z,16.43
2018-09-13T07:16:55.226Z,16.47
2018-09-13T07:19:23.759Z,12.70
2018-09-13T07:21:52.361Z,15.80
2018-09-13T07:24:20.879Z,16.70
2018-09-13T07:26:49.514Z,13.97
2018-09-13T07:29:18.035Z,14.13
2018-09-13T07:31:46.555Z,20.77
2018-09-13T07:34:15.187Z,14.33
2018-09-13T07:36:43.715Z,15.53
2018-09-13T07:39:13.855Z,14.37
2018-09-13T07:41:42.389Z,16.40
2018-09-13T07:44:10.973Z,14.00
2018-09-13T07:46:39.570Z,14.80
2018-09-13T07:49:08.234Z,18.10
2018-09-13T07:51:36.694Z,15.30
2018-09-13T07:54:05.292Z,17.03
2018-09-13T07:56:33.839Z,17.17
2018-09-13T07:59:02.401Z,30.13
2018-09-13T08:01:30.938Z,14.37
2018-09-13T08:03:59.470Z,14.33
2018-09-13T08:06:27.973Z,15.80
2018-09-13T08:08:56.560Z,14.83
2018-09-13T08:11:25.070Z,14.90
2018-09-13T08:13:53.693Z,13.70
2018-09-13T08:16:22.226Z,15.17
2018-09-13T08:18:50.730Z,14.10
2018-09-13T08:21:19.443Z,14.13
2018-09-13T08:23:47.982Z,15.60
2018-09-13T08:26:16.499Z,15.40
2018-09-13T08:28:45.037Z,16.77
2018-09-13T08:31:13.543Z,24.97
2018-09-13T08:33:42.166Z,12.73
2018-09-13T08:36:11.778Z,16.20
2018-09-13T08:38:40.289Z,12.50
2018-09-13T08:41:08.907Z,12.50
2018-09-13T08:43:37.399Z,14.83
2018-09-13T08:46:05.962Z,12.23
2018-09-13T08:48:34.496Z,11.50
2018-09-13T08:51:03.022Z,13.40
2018-09-13T08:53:31.563Z,13.03
2018-09-13T08:56:00.093Z,10.53
2018-09-13T08:58:28.618Z,10.37
2018-09-13T09:00:57.570Z,12.27
2018-09-13T09:03:26.062Z,13.73
2018-09-13T09:05:54.650Z,14.60
2018-09-13T09:08:23.154Z,12.13
2018-09-13T09:10:51.770Z,13.43
2018-09-13T09:13:20.354Z,10.87
2018-09-13T09:15:48.860Z,16.10
2018-09-13T09:18:17.386Z,11.43
2018-09-13T09:20:45.934Z,11.43
2018-09-13T09:23:14.526Z,10.93
2018-09-13T09:25:43.029Z,12.83
2018-09-13T09:28:11.546Z,15.43
2018-09-13T09:30:44.562Z,11.10
2018-09-13T09:33:13.234Z,12.67
2018-09-13T09:35:41.744Z,14.03
2018-09-13T09:38:10.306Z,13.50
2018-09-13T09:40:38.855Z,17.73
2018-09-13T09:43:07.434Z,16.87
2018-09-13T09:45:35.928Z,16.87
2018-09-13T09:48:04.508Z,14.50
2018-09-13T09:50:32.998Z,15.90
2018-09-13T09:53:01.698Z,15.00
2018-09-13T09:55:30.219Z,14.40
2018-09-13T09:57:58.887Z,16.30
2018-09-13T10:00:32.761Z,13.63
2018-09-13T10:03:01.366Z,18.70
2018-09-13T10:05:29.931Z,13.30
2018-09-13T10:07:58.479Z,12.33
2018-09-13T10:10:27.062Z,16.13
2018-09-13T10:12:55.613Z,12.77
2018-09-13T10:15:29.403Z,11.97
2018-09-13T10:18:03.193Z,9.63
2018-09-13T10:20:36.943Z,9.20
2018-09-13T10:23:11.054Z,15.57
2018-09-13T10:25:44.989Z,14.70
2018-09-13T10:28:18.917Z,12.27
2018-09-13T10:30:52.810Z,12.43
2018-09-13T10:33:26.576Z,14.13
2018-09-13T10:36:00.588Z,9.87
2018-09-13T10:38:34.362Z,15.10
2018-09-13T10:41:08.234Z,13.03
2018-09-13T10:43:41.890Z,12.57
2018-09-13T10:46:15.860Z,11.60
2018-09-13T10:48:49.600Z,12.33
2018-09-13T10:51:23.391Z,12.63
2018-09-13T10:53:56.088Z,13.57
2018-09-13T10:56:24.664Z,8.13
2018-09-13T10:58:53.187Z,7.10
2018-09-13T11:01:21.757Z,6.40
2018-09-13T11:03:50.458Z,8.30
2018-09-13T11:06:19.025Z,6.83
2018-09-13T11:08:47.926Z,8.90
2018-09-13T11:11:16.515Z,7.10
2018-09-13T11:13:51.678Z,6.43
2018-09-13T11:16:20.846Z,4.50
2018-09-13T11:18:49.343Z,4.47
2018-09-13T11:21:18.102Z,2.90
2018-09-13T11:23:46.689Z,3.37
2018-09-13T11:26:15.195Z,4.60
2018-09-13T11:28:43.759Z,6.53
2018-09-13T11:31:12.242Z,4.10
2018-09-13T11:33:41.275Z,4.63
2018-09-13T11:36:09.807Z,6.60
2018-09-13T11:38:38.329Z,8.37
2018-09-13T11:41:07.568Z,5.10
2018-09-13T11:43:35.958Z,5.00
2018-09-13T11:46:04.454Z,5.40
2018-09-13T11:48:33.096Z,8.70
2018-09-13T11:51:02.154Z,8.63
2018-09-13T11:53:30.734Z,11.97
2018-09-13T11:55:59.238Z,6.57
2018-09-13T11:58:27.758Z,7.90
2018-09-13T12:00:56.326Z,8.37
2018-09-13T12:03:24.870Z,9.07
2018-09-13T12:05:53.394Z,8.70
2018-09-13T12:08:21.965Z,10.90
2018-09-13T12:10:50.476Z,10.97
2018-09-13T12:13:19.038Z,10.90
2018-09-13T12:15:47.583Z,11.20
2018-09-13T12:18:16.099Z,14.40
2018-09-13T12:20:44.664Z,8.47
2018-09-13T12:23:13.162Z,11.30
2018-09-13T12:25:41.702Z,11.20
2018-09-13T12:28:10.195Z,7.20
2018-09-13T12:30:38.741Z,8.27
2018-09-13T12:33:07.394Z,15.43
2018-09-13T12:35:35.971Z,8.97
2018-09-13T12:38:04.540Z,10.40
2018-09-13T12:40:33.130Z,8.63
2018-09-13T12:43:01.557Z,8.37
2018-09-13T12:45:30.087Z,9.43
2018-09-13T12:47:58.590Z,9.87
2018-09-13T12:50:27.202Z,10.23
2018-09-13T12:52:55.700Z,9.60
2018-09-13T12:55:28.470Z,10.00
2018-09-13T12:57:56.963Z,8.70
2018-09-13T13:00:25.590Z,8.00
2018-09-13T13:02:54.127Z,8.53
2018-09-13T13:05:22.645Z,9.53
2018-09-13T13:07:51.235Z,11.20
2018-09-13T13:10:19.864Z,15.03
2018-09-13T13:12:48.473Z,16.40
2018-09-13T13:15:16.982Z,18.63
2018-09-13T13:17:45.505Z,16.10
2018-09-13T13:20:14.131Z,14.40
2018-09-13T13:22:42.657Z,10.93
2018-09-13T13:25:11.182Z,13.17
2018-09-13T13:27:39.752Z,11.13
2018-09-13T13:30:08.284Z,10.67
2018-09-13T13:32:36.839Z,9.30
2018-09-13T13:35:05.404Z,10.60
2018-09-13T13:37:33.954Z,13.40
2018-09-13T13:40:02.458Z,11.00
2018-09-13T13:42:31.038Z,11.53
2018-09-13T13:44:59.552Z,11.47
2018-09-13T13:47:28.021Z,11.20
2018-09-13T13:49:56.547Z,10.83
2018-09-13T13:52:25.093Z,11.87
2018-09-13T13:54:53.642Z,10.03
2018-09-13T13:57:22.129Z,10.00
2018-09-13T13:59:50.835Z,10.60
2018-09-13T14:02:19.263Z,8.80
2018-09-13T14:04:47.891Z,8.67
2018-09-13T14:07:16.389Z,9.63
2018-09-13T14:09:45.085Z,9.53
2018-09-13T14:12:13.495Z,12.90
2018-09-13T14:14:42.068Z,9.60
2018-09-13T14:17:10.649Z,10.23
2018-09-13T14:19:39.203Z,8.37
2018-09-13T14:22:07.762Z,8.60
2018-09-13T14:24:36.276Z,8.53
2018-09-13T14:27:05.231Z,7.97
2018-09-13T14:29:33.764Z,8.23
2018-09-13T14:32:02.295Z,9.40
2018-09-13T14:34:30.829Z,9.40
2018-09-13T14:36:59.480Z,13.80
2018-09-13T14:39:28.258Z,9.13
2018-09-13T14:41:56.871Z,8.60
2018-09-13T14:44:25.406Z,9.60
2018-09-13T14:46:53.935Z,9.67
2018-09-13T14:49:23.129Z,10.47
2018-09-13T14:51:51.728Z,11.70
2018-09-13T14:54:20.318Z,9.30
2018-09-13T14:56:49.094Z,7.23
2018-09-13T14:59:17.598Z,10.03
2018-09-13T15:01:46.140Z,8.63
2018-09-13T15:04:14.662Z,9.57
2018-09-13T15:06:43.190Z,10.00
2018-09-13T15:09:12.771Z,10.10
2018-09-13T15:11:42.443Z,11.17
2018-09-13T15:14:10.933Z,13.00
2018-09-13T15:16:39.467Z,13.37
2018-09-13T15:19:08.009Z,9.70
2018-09-13T15:21:36.660Z,9.50
2018-09-13T15:24:05.132Z,10.27
2018-09-13T15:26:33.676Z,10.30
2018-09-13T15:29:02.207Z,11.63
2018-09-13T15:31:30.752Z,11.97
2018-09-13T15:33:59.261Z,11.47
2018-09-13T15:36:27.747Z,10.80
2018-09-13T15:38:56.292Z,10.77
2018-09-13T15:41:24.873Z,13.33
2018-09-13T15:43:53.866Z,12.33
2018-09-13T15:46:22.369Z,10.07
2018-09-13T15:48:50.928Z,11.37
2018-09-13T15:51:21.500Z,11.97
2018-09-13T15:53:50.033Z,12.40
2018-09-13T15:56:18.619Z,11.10
2018-09-13T15:58:47.347Z,9.67
2018-09-13T16:01:19.434Z,11.23
2018-09-13T16:03:49.160Z,12.73
2018-09-13T16:06:19.019Z,12.43
2018-09-13T16:08:48.389Z,10.17
2018-09-13T16:11:18.629Z,10.73
2018-09-13T16:13:47.475Z,11.33
2018-09-13T16:16:16.179Z,10.20
2018-09-13T16:18:44.821Z,10.53
2018-09-13T16:21:15.468Z,10.53
2018-09-13T16:23:55.876Z,11.07
2018-09-13T16:26:28.979Z,10.33
2018-09-13T16:28:57.798Z,10.97
2018-09-13T16:31:26.348Z,11.73
2018-09-13T16:33:54.969Z,11.53
2018-09-13T16:36:29.328Z,10.70
2018-09-13T16:39:03.094Z,11.07
2018-09-13T16:41:40.899Z,10.77
2018-09-13T16:44:13.662Z,12.30
2018-09-13T16:46:47.547Z,11.60
2018-09-13T16:49:16.106Z,11.73
2018-09-13T16:51:44.844Z,11.67
2018-09-13T16:54:13.672Z,11.90
2018-09-13T16:56:42.752Z,11.57
2018-09-13T16:59:11.699Z,11.80
2018-09-13T17:01:40.220Z,12.03
2018-09-13T17:04:09.140Z,11.57
2018-09-13T17:06:37.678Z,11.87
2018-09-13T17:09:09.144Z,12.33
2018-09-13T17:11:37.905Z,12.30
2018-09-13T17:14:06.572Z,11.63
2018-09-13T17:16:35.122Z,12.10
2018-09-13T17:19:03.648Z,12.20
2018-09-13T17:21:32.179Z,12.53
2018-09-13T17:24:00.701Z,10.73
2018-09-13T17:26:29.224Z,16.00
2018-09-13T17:28:57.727Z,11.80
2018-09-13T17:31:26.301Z,12.10
2018-09-13T17:33:54.881Z,11.83
2018-09-13T17:36:23.387Z,12.63
2018-09-13T17:38:51.918Z,11.17
2018-09-13T17:41:20.510Z,11.27
2018-09-13T17:43:49.257Z,11.97
2018-09-13T17:46:17.870Z,15.23
2018-09-13T17:48:46.510Z,12.93
2018-09-13T17:51:14.999Z,13.90
2018-09-13T17:53:43.550Z,17.07
2018-09-13T17:56:12.027Z,15.40
2018-09-13T17:58:40.591Z,13.30
2018-09-13T18:01:09.139Z,13.20
2018-09-13T18:03:37.754Z,17.07
2018-09-13T18:06:06.242Z,13.80
2018-09-13T18:08:34.875Z,13.83
2018-09-13T18:11:03.507Z,14.30
2018-09-13T18:13:32.051Z,14.43
2018-09-13T18:16:01.062Z,12.97
2018-09-13T18:18:29.585Z,14.13
2018-09-13T18:20:58.120Z,15.10
2018-09-13T18:23:26.688Z,14.23
2018-09-13T18:25:55.195Z,13.57
2018-09-13T18:28:23.759Z,21.53
2018-09-13T18:30:52.261Z,16.10
2018-09-13T18:33:20.801Z,16.30
2018-09-13T18:35:49.430Z,14.00
2018-09-13T18:38:17.979Z,15.43
2018-09-13T18:40:46.554Z,15.63
2018-09-13T18:43:15.052Z,16.33
2018-09-13T18:45:43.892Z,15.73
2018-09-13T18:48:12.485Z,17.00
2018-09-13T18:50:41.046Z,16.40
2018-09-13T18:53:09.555Z,14.20
2018-09-13T18:55:38.168Z,15.73
2018-09-13T18:58:06.739Z,17.23
2018-09-13T19:00:35.344Z,13.60
2018-09-13T19:03:03.874Z,18.23
2018-09-13T19:05:32.462Z,18.00
2018-09-13T19:08:01.008Z,16.93
2018-09-13T19:10:29.591Z,16.37
2018-09-13T19:13:01.112Z,16.90
2018-09-13T19:15:29.661Z,17.03
2018-09-13T19:17:58.179Z,14.77
2018-09-13T19:20:26.748Z,19.60
2018-09-13T19:22:55.262Z,19.10
2018-09-13T19:25:23.851Z,17.37
2018-09-13T19:27:53.255Z,19.47
2018-09-13T19:30:21.867Z,17.80
2018-09-13T19:32:50.421Z,16.43
2018-09-13T19:35:19.009Z,21.83
2018-09-13T19:37:47.615Z,23.27
2018-09-13T19:40:16.116Z,19.63
2018-09-13T19:42:45.215Z,22.50
2018-09-13T19:45:13.696Z,20.47
2018-09-13T19:47:42.274Z,19.60
2018-09-13T19:50:10.757Z,20.67
2018-09-13T19:52:39.313Z,21.20
2018-09-13T19:55:08.114Z,21.00
2018-09-13T19:57:36.710Z,19.80
2018-09-13T20:00:05.562Z,19.37
2018-09-13T20:02:34.384Z,20.40
2018-09-13T20:05:03.043Z,21.30
2018-09-13T20:07:31.654Z,22.10
2018-09-13T20:10:00.269Z,22.17
2018-09-13T20:12:28.851Z,20.33
2018-09-13T20:14:57.835Z,21.53
2018-09-13T20:17:26.401Z,20.53
2018-09-13T20:19:54.904Z,21.13
2018-09-13T20:22:23.433Z,20.93
2018-09-13T20:24:51.952Z,22.67
2018-09-13T20:27:20.484Z,24.23
2018-09-13T20:29:49.039Z,21.00
2018-09-13T20:32:17.606Z,23.43
2018-09-13T20:34:46.219Z,27.00
2018-09-13T20:37:14.786Z,23.00
2018-09-13T20:39:43.326Z,23.03
2018-09-13T20:42:11.824Z,21.53
2018-09-13T20:44:40.355Z,22.30
2018-09-13T20:47:08.852Z,27.23
2018-09-13T20:49:37.378Z,23.03
2018-09-13T20:52:05.914Z,26.03
2018-09-13T20:54:34.456Z,22.33
2018-09-13T20:57:02.947Z,19.93
2018-09-13T20:59:31.545Z,21.67
2018-09-13T21:02:00.063Z,23.07
2018-09-13T21:04:28.616Z,28.17
2018-09-13T21:06:57.136Z,26.30
2018-09-13T21:09:25.661Z,25.80
2018-09-13T21:11:54.211Z,25.00
2018-09-13T21:14:22.731Z,27.77
2018-09-13T21:16:51.285Z,21.70
2018-09-13T21:19:19.774Z,21.60
2018-09-13T21:21:48.403Z,23.17
2018-09-13T21:24:17.054Z,25.50
2018-09-13T21:26:45.577Z,22.77
2018-09-13T21:29:14.050Z,26.50
2018-09-13T21:31:42.611Z,23.97
2018-09-13T21:34:11.167Z,26.47
2018-09-13T21:36:40.055Z,28.13
2018-09-13T21:39:10.530Z,24.60
2018-09-13T21:41:39.091Z,24.60
2018-09-13T21:44:07.582Z,24.63
2018-09-13T21:46:36.153Z,27.57
2018-09-13T21:49:04.651Z,30.40
2018-09-13T21:51:33.173Z,24.83
2018-09-13T21:54:01.667Z,24.33
2018-09-13T21:56:30.171Z,25.30
2018-09-13T21:58:58.662Z,29.53
2018-09-13T22:01:27.230Z,29.73
2018-09-13T22:03:55.744Z,29.50
2018-09-13T22:06:24.298Z,30.23
2018-09-13T22:08:52.842Z,35.57
2018-09-13T22:11:21.445Z,30.13
2018-09-13T22:13:49.925Z,34.37
2018-09-13T22:16:18.429Z,31.50
2018-09-13T22:18:47.043Z,34.63
2018-09-13T22:21:15.655Z,49.13
2018-09-13T22:23:44.183Z,35.80
2018-09-13T22:26:12.730Z,36.10
2018-09-13T22:28:41.248Z,31.47
2018-09-13T22:31:09.783Z,41.37
2018-09-13T22:33:38.330Z,35.30
2018-09-13T22:36:06.858Z,41.67
2018-09-13T22:38:35.408Z,38.33
2018-09-13T22:41:03.898Z,39.77
2018-09-13T22:43:41.027Z,39.73
2018-09-13T22:46:09.614Z,38.00
2018-09-13T22:48:38.124Z,43.40
2018-09-13T22:51:06.625Z,38.17
2018-09-13T22:53:35.209Z,44.43
2018-09-13T22:56:03.671Z,38.70
2018-09-13T22:58:32.272Z,41.77
2018-09-13T23:01:00.750Z,37.97
2018-09-13T23:03:29.341Z,44.10
2018-09-13T23:05:57.848Z,41.07
2018-09-13T23:08:26.330Z,41.10
2018-09-13T23:10:54.898Z,56.17
2018-09-13T23:13:23.733Z,51.60
2018-09-13T23:15:52.336Z,55.00
2018-09-13T23:18:20.785Z,47.60
2018-09-13T23:20:49.325Z,52.40
2018-09-13T23:23:18.016Z,50.67
2018-09-13T23:25:46.543Z,50.70
2018-09-13T23:28:15.026Z,57.23
2018-09-13T23:30:43.589Z,57.87
2018-09-13T23:33:12.100Z,47.83
2018-09-13T23:35:40.638Z,55.50
2018-09-13T23:38:09.203Z,54.87
2018-09-13T23:40:37.768Z,63.47
2018-09-13T23:43:06.217Z,60.77
2018-09-13T23:45:34.730Z,56.23
2018-09-13T23:48:03.303Z,59.77
2018-09-13T23:50:31.844Z,53.43
2018-09-13T23:53:00.322Z,57.87
2018-09-13T23:55:28.825Z,48.53
2018-09-13T23:57:57.322Z,56.07
